Stoney Creek, Canada
Current Conditions -  °F | °C
As of 2:00 AM on Saturday 29 Nov 2014 (Local Time) from CYHM Reporting Station
Snow Showers Snow Showers  
Wind Chill: 13°   Ceiling: 2500
Heat Index: 21°   Visibility: 15mi
Dew Point: 16°   Wind: 7mph
Humidity: 80%   Direction: 110°ESE
Pressure: 30.14"   Gusts: NA
Location:  43.21°N, 79.69°W
Report Text: CYHM 290700Z 11006KT 15SM -SHSN FEW016 BKN025 OVC080 M06/M09 A3014 RMK CF2SC5AC1 SLP218
Loading
Personal Weather Stations






























Interactive Weather Map New forecast layout! Learn more

10-Day Weather Forecast

Advertisements
Track Severe Weather on mobile